sensor_id;sensor_type;location;lat;lon;timestamp;P1;durP1;ratioP1;P2;durP2;ratioP2
31537;SDS011;18147;51.952;6.146;2023-07-30T00:00:08;16.30;;;7.53;;
31537;SDS011;18147;51.952;6.146;2023-07-30T00:02:38;20.88;;;7.20;;
31537;SDS011;18147;51.952;6.146;2023-07-30T00:05:03;18.35;;;8.07;;
31537;SDS011;18147;51.952;6.146;2023-07-30T00:07:29;18.70;;;8.25;;
31537;SDS011;18147;51.952;6.146;2023-07-30T00:09:55;17.40;;;8.15;;
31537;SDS011;18147;51.952;6.146;2023-07-30T00:12:21;20.20;;;8.00;;
31537;SDS011;18147;51.952;6.146;2023-07-30T00:14:46;15.93;;;8.88;;
31537;SDS011;18147;51.952;6.146;2023-07-30T00:17:12;18.17;;;9.70;;
31537;SDS011;18147;51.952;6.146;2023-07-30T00:19:38;23.13;;;11.13;;
31537;SDS011;18147;51.952;6.146;2023-07-30T00:22:07;31.58;;;11.45;;
31537;SDS011;18147;51.952;6.146;2023-07-30T00:24:32;19.42;;;10.13;;
31537;SDS011;18147;51.952;6.146;2023-07-30T00:26:58;16.20;;;9.70;;
31537;SDS011;18147;51.952;6.146;2023-07-30T00:29:24;17.05;;;8.75;;
31537;SDS011;18147;51.952;6.146;2023-07-30T00:31:50;22.15;;;8.48;;
31537;SDS011;18147;51.952;6.146;2023-07-30T00:34:15;15.65;;;8.15;;
31537;SDS011;18147;51.952;6.146;2023-07-30T00:36:42;15.07;;;7.72;;
31537;SDS011;18147;51.952;6.146;2023-07-30T00:39:08;18.75;;;7.80;;
31537;SDS011;18147;51.952;6.146;2023-07-30T00:41:36;21.63;;;7.70;;
31537;SDS011;18147;51.952;6.146;2023-07-30T00:44:03;19.92;;;7.43;;
31537;SDS011;18147;51.952;6.146;2023-07-30T00:46:29;22.48;;;7.72;;
31537;SDS011;18147;51.952;6.146;2023-07-30T00:48:56;17.00;;;8.13;;
31537;SDS011;18147;51.952;6.146;2023-07-30T00:51:22;14.85;;;6.85;;
31537;SDS011;18147;51.952;6.146;2023-07-30T00:53:49;18.65;;;6.45;;
31537;SDS011;18147;51.952;6.146;2023-07-30T00:56:15;14.93;;;6.88;;
31537;SDS011;18147;51.952;6.146;2023-07-30T00:58:43;12.18;;;6.30;;
31537;SDS011;18147;51.952;6.146;2023-07-30T01:01:13;20.27;;;7.28;;
31537;SDS011;18147;51.952;6.146;2023-07-30T01:03:40;13.80;;;6.47;;
31537;SDS011;18147;51.952;6.146;2023-07-30T01:06:08;14.15;;;7.00;;
31537;SDS011;18147;51.952;6.146;2023-07-30T01:08:34;20.98;;;7.32;;
31537;SDS011;18147;51.952;6.146;2023-07-30T01:11:00;14.65;;;6.88;;
31537;SDS011;18147;51.952;6.146;2023-07-30T01:13:28;12.80;;;6.13;;
31537;SDS011;18147;51.952;6.146;2023-07-30T01:15:54;17.15;;;7.13;;
31537;SDS011;18147;51.952;6.146;2023-07-30T01:18:20;11.60;;;6.70;;
31537;SDS011;18147;51.952;6.146;2023-07-30T01:20:46;13.13;;;6.72;;
31537;SDS011;18147;51.952;6.146;2023-07-30T01:23:15;18.48;;;7.35;;
31537;SDS011;18147;51.952;6.146;2023-07-30T01:25:41;19.58;;;7.10;;
31537;SDS011;18147;51.952;6.146;2023-07-30T01:28:10;11.45;;;6.93;;
31537;SDS011;18147;51.952;6.146;2023-07-30T01:30:43;14.53;;;7.07;;
31537;SDS011;18147;51.952;6.146;2023-07-30T01:33:16;15.82;;;7.32;;
31537;SDS011;18147;51.952;6.146;2023-07-30T01:35:42;18.77;;;7.70;;
31537;SDS011;18147;51.952;6.146;2023-07-30T01:38:09;13.40;;;7.35;;
31537;SDS011;18147;51.952;6.146;2023-07-30T01:40:43;13.75;;;6.63;;
31537;SDS011;18147;51.952;6.146;2023-07-30T01:43:08;16.70;;;7.65;;
31537;SDS011;18147;51.952;6.146;2023-07-30T01:45:37;16.02;;;5.80;;
31537;SDS011;18147;51.952;6.146;2023-07-30T01:48:08;14.45;;;6.95;;
31537;SDS011;18147;51.952;6.146;2023-07-30T01:50:34;16.15;;;7.18;;
31537;SDS011;18147;51.952;6.146;2023-07-30T01:52:59;23.17;;;7.95;;
31537;SDS011;18147;51.952;6.146;2023-07-30T01:55:25;15.30;;;6.97;;
31537;SDS011;18147;51.952;6.146;2023-07-30T01:57:51;22.88;;;7.22;;
31537;SDS011;18147;51.952;6.146;2023-07-30T02:00:16;18.02;;;6.70;;
31537;SDS011;18147;51.952;6.146;2023-07-30T02:02:43;16.80;;;6.72;;
31537;SDS011;18147;51.952;6.146;2023-07-30T02:05:09;17.33;;;6.72;;
31537;SDS011;18147;51.952;6.146;2023-07-30T02:07:34;22.77;;;6.20;;
31537;SDS011;18147;51.952;6.146;2023-07-30T02:10:00;19.40;;;6.55;;
31537;SDS011;18147;51.952;6.146;2023-07-30T02:12:25;15.55;;;6.25;;
31537;SDS011;18147;51.952;6.146;2023-07-30T02:14:51;16.80;;;6.45;;
31537;SDS011;18147;51.952;6.146;2023-07-30T02:17:17;16.67;;;6.20;;
31537;SDS011;18147;51.952;6.146;2023-07-30T02:19:45;13.70;;;6.43;;
31537;SDS011;18147;51.952;6.146;2023-07-30T02:22:13;15.00;;;5.93;;
31537;SDS011;18147;51.952;6.146;2023-07-30T02:24:43;12.60;;;5.72;;
31537;SDS011;18147;51.952;6.146;2023-07-30T02:27:09;17.00;;;5.47;;
31537;SDS011;18147;51.952;6.146;2023-07-30T02:29:38;21.50;;;6.43;;
31537;SDS011;18147;51.952;6.146;2023-07-30T02:32:05;17.45;;;5.97;;
31537;SDS011;18147;51.952;6.146;2023-07-30T02:34:31;9.90;;;5.07;;
31537;SDS011;18147;51.952;6.146;2023-07-30T02:36:56;18.95;;;5.40;;
31537;SDS011;18147;51.952;6.146;2023-07-30T02:39:22;13.23;;;5.55;;
31537;SDS011;18147;51.952;6.146;2023-07-30T02:41:47;16.95;;;5.28;;
31537;SDS011;18147;51.952;6.146;2023-07-30T02:44:13;22.15;;;6.88;;
31537;SDS011;18147;51.952;6.146;2023-07-30T02:46:39;18.55;;;5.65;;
31537;SDS011;18147;51.952;6.146;2023-07-30T02:49:08;24.08;;;5.65;;
31537;SDS011;18147;51.952;6.146;2023-07-30T02:51:34;22.08;;;5.55;;
31537;SDS011;18147;51.952;6.146;2023-07-30T02:54:03;13.82;;;5.75;;
31537;SDS011;18147;51.952;6.146;2023-07-30T02:56:30;14.77;;;6.18;;
31537;SDS011;18147;51.952;6.146;2023-07-30T02:58:56;20.80;;;6.35;;
31537;SDS011;18147;51.952;6.146;2023-07-30T03:01:23;14.70;;;5.57;;
31537;SDS011;18147;51.952;6.146;2023-07-30T03:03:49;12.43;;;5.78;;
31537;SDS011;18147;51.952;6.146;2023-07-30T03:06:15;17.65;;;6.65;;
31537;SDS011;18147;51.952;6.146;2023-07-30T03:08:45;18.20;;;6.90;;
31537;SDS011;18147;51.952;6.146;2023-07-30T03:11:12;17.27;;;7.18;;
31537;SDS011;18147;51.952;6.146;2023-07-30T03:13:38;28.25;;;7.22;;
31537;SDS011;18147;51.952;6.146;2023-07-30T03:16:09;16.83;;;7.63;;
31537;SDS011;18147;51.952;6.146;2023-07-30T03:18:34;27.38;;;8.25;;
31537;SDS011;18147;51.952;6.146;2023-07-30T03:21:00;16.60;;;8.20;;
31537;SDS011;18147;51.952;6.146;2023-07-30T03:23:26;21.63;;;7.93;;
31537;SDS011;18147;51.952;6.146;2023-07-30T03:25:52;23.92;;;8.45;;
31537;SDS011;18147;51.952;6.146;2023-07-30T03:28:18;22.08;;;8.00;;
31537;SDS011;18147;51.952;6.146;2023-07-30T03:30:44;25.17;;;9.05;;
31537;SDS011;18147;51.952;6.146;2023-07-30T03:33:12;23.15;;;9.30;;
31537;SDS011;18147;51.952;6.146;2023-07-30T03:35:38;25.15;;;9.90;;
31537;SDS011;18147;51.952;6.146;2023-07-30T03:38:13;30.40;;;10.48;;
31537;SDS011;18147;51.952;6.146;2023-07-30T03:40:43;29.30;;;10.75;;
31537;SDS011;18147;51.952;6.146;2023-07-30T03:43:09;35.03;;;10.48;;
31537;SDS011;18147;51.952;6.146;2023-07-30T03:45:43;25.17;;;10.23;;
31537;SDS011;18147;51.952;6.146;2023-07-30T03:48:09;39.80;;;11.70;;
31537;SDS011;18147;51.952;6.146;2023-07-30T03:50:36;28.02;;;10.55;;
31537;SDS011;18147;51.952;6.146;2023-07-30T03:53:02;36.03;;;11.82;;
31537;SDS011;18147;51.952;6.146;2023-07-30T03:55:28;28.33;;;10.82;;
31537;SDS011;18147;51.952;6.146;2023-07-30T03:57:54;25.63;;;10.77;;
31537;SDS011;18147;51.952;6.146;2023-07-30T04:00:19;23.13;;;9.65;;
31537;SDS011;18147;51.952;6.146;2023-07-30T04:02:45;34.10;;;11.73;;
31537;SDS011;18147;51.952;6.146;2023-07-30T04:05:10;32.45;;;11.13;;
31537;SDS011;18147;51.952;6.146;2023-07-30T04:07:38;25.30;;;11.73;;
31537;SDS011;18147;51.952;6.146;2023-07-30T04:10:04;27.42;;;12.45;;
31537;SDS011;18147;51.952;6.146;2023-07-30T04:12:29;26.17;;;11.77;;
31537;SDS011;18147;51.952;6.146;2023-07-30T04:14:55;26.95;;;12.95;;
31537;SDS011;18147;51.952;6.146;2023-07-30T04:17:21;37.88;;;13.07;;
31537;SDS011;18147;51.952;6.146;2023-07-30T04:19:47;41.92;;;13.02;;
31537;SDS011;18147;51.952;6.146;2023-07-30T04:22:13;32.72;;;12.40;;
31537;SDS011;18147;51.952;6.146;2023-07-30T04:24:38;31.98;;;13.48;;
31537;SDS011;18147;51.952;6.146;2023-07-30T04:27:08;36.15;;;13.43;;
31537;SDS011;18147;51.952;6.146;2023-07-30T04:29:34;36.20;;;13.35;;
31537;SDS011;18147;51.952;6.146;2023-07-30T04:32:00;33.45;;;13.18;;
31537;SDS011;18147;51.952;6.146;2023-07-30T04:34:26;38.80;;;13.90;;
31537;SDS011;18147;51.952;6.146;2023-07-30T04:36:52;38.70;;;14.35;;
31537;SDS011;18147;51.952;6.146;2023-07-30T04:39:18;40.80;;;13.98;;
31537;SDS011;18147;51.952;6.146;2023-07-30T04:41:44;31.42;;;14.63;;
31537;SDS011;18147;51.952;6.146;2023-07-30T04:44:10;38.85;;;14.30;;
31537;SDS011;18147;51.952;6.146;2023-07-30T04:46:39;43.38;;;14.13;;
31537;SDS011;18147;51.952;6.146;2023-07-30T04:49:08;39.15;;;14.98;;
31537;SDS011;18147;51.952;6.146;2023-07-30T04:51:33;41.40;;;15.68;;
31537;SDS011;18147;51.952;6.146;2023-07-30T04:54:00;42.92;;;15.15;;
31537;SDS011;18147;51.952;6.146;2023-07-30T04:56:25;48.28;;;17.00;;
31537;SDS011;18147;51.952;6.146;2023-07-30T04:58:53;44.97;;;15.70;;
31537;SDS011;18147;51.952;6.146;2023-07-30T05:01:19;46.85;;;16.10;;
31537;SDS011;18147;51.952;6.146;2023-07-30T05:03:44;39.92;;;14.93;;
31537;SDS011;18147;51.952;6.146;2023-07-30T05:06:11;35.10;;;15.40;;
31537;SDS011;18147;51.952;6.146;2023-07-30T05:08:37;39.50;;;15.55;;
31537;SDS011;18147;51.952;6.146;2023-07-30T05:11:03;42.78;;;15.50;;
31537;SDS011;18147;51.952;6.146;2023-07-30T05:13:28;43.75;;;15.88;;
31537;SDS011;18147;51.952;6.146;2023-07-30T05:15:53;49.15;;;16.58;;
31537;SDS011;18147;51.952;6.146;2023-07-30T05:18:19;46.10;;;15.95;;
31537;SDS011;18147;51.952;6.146;2023-07-30T05:20:48;42.55;;;14.95;;
31537;SDS011;18147;51.952;6.146;2023-07-30T05:23:14;43.85;;;16.85;;
31537;SDS011;18147;51.952;6.146;2023-07-30T05:25:43;40.58;;;16.23;;
31537;SDS011;18147;51.952;6.146;2023-07-30T05:28:10;37.42;;;15.30;;
31537;SDS011;18147;51.952;6.146;2023-07-30T05:30:41;41.20;;;16.35;;
31537;SDS011;18147;51.952;6.146;2023-07-30T05:33:10;33.08;;;15.15;;
31537;SDS011;18147;51.952;6.146;2023-07-30T05:35:42;36.00;;;14.95;;
31537;SDS011;18147;51.952;6.146;2023-07-30T05:38:12;43.88;;;15.95;;
31537;SDS011;18147;51.952;6.146;2023-07-30T05:40:38;34.55;;;15.77;;
31537;SDS011;18147;51.952;6.146;2023-07-30T05:43:04;40.45;;;16.50;;
31537;SDS011;18147;51.952;6.146;2023-07-30T05:45:29;48.60;;;17.73;;
31537;SDS011;18147;51.952;6.146;2023-07-30T05:47:54;39.25;;;17.02;;
31537;SDS011;18147;51.952;6.146;2023-07-30T05:50:20;41.90;;;16.58;;
31537;SDS011;18147;51.952;6.146;2023-07-30T05:52:46;42.75;;;17.70;;
31537;SDS011;18147;51.952;6.146;2023-07-30T05:55:14;41.75;;;17.00;;
31537;SDS011;18147;51.952;6.146;2023-07-30T05:57:43;43.97;;;17.92;;
31537;SDS011;18147;51.952;6.146;2023-07-30T06:00:09;38.30;;;17.27;;
31537;SDS011;18147;51.952;6.146;2023-07-30T06:02:38;42.65;;;17.13;;
31537;SDS011;18147;51.952;6.146;2023-07-30T06:05:05;46.63;;;17.48;;
31537;SDS011;18147;51.952;6.146;2023-07-30T06:07:31;39.72;;;17.30;;
31537;SDS011;18147;51.952;6.146;2023-07-30T06:09:56;33.58;;;15.68;;
31537;SDS011;18147;51.952;6.146;2023-07-30T06:12:22;41.72;;;17.48;;
31537;SDS011;18147;51.952;6.146;2023-07-30T06:14:47;42.72;;;17.60;;
31537;SDS011;18147;51.952;6.146;2023-07-30T06:17:13;47.83;;;18.42;;
31537;SDS011;18147;51.952;6.146;2023-07-30T06:19:38;41.85;;;17.85;;
31537;SDS011;18147;51.952;6.146;2023-07-30T06:22:13;37.70;;;17.73;;
31537;SDS011;18147;51.952;6.146;2023-07-30T06:24:38;45.90;;;18.40;;
31537;SDS011;18147;51.952;6.146;2023-07-30T06:27:05;34.88;;;16.40;;
31537;SDS011;18147;51.952;6.146;2023-07-30T06:29:31;48.03;;;17.33;;
31537;SDS011;18147;51.952;6.146;2023-07-30T06:31:57;44.25;;;17.20;;
31537;SDS011;18147;51.952;6.146;2023-07-30T06:34:23;51.33;;;17.60;;
31537;SDS011;18147;51.952;6.146;2023-07-30T06:36:48;35.17;;;16.65;;
31537;SDS011;18147;51.952;6.146;2023-07-30T06:39:15;40.88;;;17.50;;
31537;SDS011;18147;51.952;6.146;2023-07-30T06:41:49;40.08;;;18.05;;
31537;SDS011;18147;51.952;6.146;2023-07-30T06:44:15;40.20;;;16.70;;
31537;SDS011;18147;51.952;6.146;2023-07-30T06:46:41;41.53;;;15.48;;
31537;SDS011;18147;51.952;6.146;2023-07-30T06:49:10;37.92;;;16.33;;
31537;SDS011;18147;51.952;6.146;2023-07-30T06:51:39;40.58;;;16.42;;
31537;SDS011;18147;51.952;6.146;2023-07-30T06:54:10;37.78;;;15.77;;
31537;SDS011;18147;51.952;6.146;2023-07-30T06:56:37;37.63;;;16.08;;
31537;SDS011;18147;51.952;6.146;2023-07-30T06:59:02;37.35;;;16.42;;
31537;SDS011;18147;51.952;6.146;2023-07-30T07:01:28;31.73;;;14.13;;
31537;SDS011;18147;51.952;6.146;2023-07-30T07:03:55;41.47;;;15.57;;
31537;SDS011;18147;51.952;6.146;2023-07-30T07:06:20;43.08;;;16.35;;
31537;SDS011;18147;51.952;6.146;2023-07-30T07:08:46;44.03;;;14.73;;
31537;SDS011;18147;51.952;6.146;2023-07-30T07:11:15;37.65;;;15.88;;
31537;SDS011;18147;51.952;6.146;2023-07-30T07:13:50;38.28;;;14.80;;
31537;SDS011;18147;51.952;6.146;2023-07-30T07:16:16;37.60;;;15.52;;
31537;SDS011;18147;51.952;6.146;2023-07-30T07:18:44;42.63;;;15.43;;
31537;SDS011;18147;51.952;6.146;2023-07-30T07:21:13;37.08;;;14.65;;
31537;SDS011;18147;51.952;6.146;2023-07-30T07:23:46;35.75;;;16.17;;
31537;SDS011;18147;51.952;6.146;2023-07-30T07:26:17;38.22;;;16.13;;
31537;SDS011;18147;51.952;6.146;2023-07-30T07:28:46;40.40;;;15.57;;
31537;SDS011;18147;51.952;6.146;2023-07-30T07:31:18;39.95;;;16.30;;
31537;SDS011;18147;51.952;6.146;2023-07-30T07:33:44;43.30;;;16.30;;
31537;SDS011;18147;51.952;6.146;2023-07-30T07:36:16;37.83;;;16.70;;
31537;SDS011;18147;51.952;6.146;2023-07-30T07:38:45;45.67;;;16.27;;
31537;SDS011;18147;51.952;6.146;2023-07-30T07:41:17;30.38;;;14.73;;
31537;SDS011;18147;51.952;6.146;2023-07-30T07:43:44;36.58;;;15.40;;
31537;SDS011;18147;51.952;6.146;2023-07-30T07:46:16;42.72;;;15.43;;
31537;SDS011;18147;51.952;6.146;2023-07-30T07:48:43;33.42;;;13.85;;
31537;SDS011;18147;51.952;6.146;2023-07-30T07:51:09;35.30;;;15.48;;
31537;SDS011;18147;51.952;6.146;2023-07-30T07:53:44;34.20;;;15.45;;
31537;SDS011;18147;51.952;6.146;2023-07-30T07:56:10;42.55;;;15.38;;
31537;SDS011;18147;51.952;6.146;2023-07-30T07:58:40;44.00;;;16.48;;
31537;SDS011;18147;51.952;6.146;2023-07-30T08:01:13;32.42;;;14.23;;
31537;SDS011;18147;51.952;6.146;2023-07-30T08:03:42;32.47;;;14.80;;
31537;SDS011;18147;51.952;6.146;2023-07-30T08:06:12;35.65;;;13.15;;
31537;SDS011;18147;51.952;6.146;2023-07-30T08:08:41;35.50;;;12.48;;
31537;SDS011;18147;51.952;6.146;2023-07-30T08:11:10;24.75;;;10.98;;
31537;SDS011;18147;51.952;6.146;2023-07-30T08:13:41;27.50;;;10.18;;
31537;SDS011;18147;51.952;6.146;2023-07-30T08:16:11;20.55;;;9.13;;
31537;SDS011;18147;51.952;6.146;2023-07-30T08:18:40;26.58;;;9.20;;
31537;SDS011;18147;51.952;6.146;2023-07-30T08:21:10;21.02;;;8.70;;
31537;SDS011;18147;51.952;6.146;2023-07-30T08:23:42;22.42;;;8.93;;
31537;SDS011;18147;51.952;6.146;2023-07-30T08:26:17;23.00;;;8.45;;
31537;SDS011;18147;51.952;6.146;2023-07-30T08:28:43;26.95;;;7.75;;
31537;SDS011;18147;51.952;6.146;2023-07-30T08:31:08;19.27;;;7.60;;
31537;SDS011;18147;51.952;6.146;2023-07-30T08:33:34;22.20;;;7.88;;
31537;SDS011;18147;51.952;6.146;2023-07-30T08:36:00;23.15;;;7.40;;
31537;SDS011;18147;51.952;6.146;2023-07-30T08:38:25;24.50;;;6.43;;
31537;SDS011;18147;51.952;6.146;2023-07-30T08:40:51;20.75;;;6.55;;
31537;SDS011;18147;51.952;6.146;2023-07-30T08:43:19;26.35;;;6.53;;
31537;SDS011;18147;51.952;6.146;2023-07-30T08:45:45;25.13;;;7.13;;
31537;SDS011;18147;51.952;6.146;2023-07-30T08:48:10;18.02;;;6.28;;
31537;SDS011;18147;51.952;6.146;2023-07-30T08:50:43;26.88;;;8.20;;
31537;SDS011;18147;51.952;6.146;2023-07-30T08:53:09;23.42;;;6.75;;
31537;SDS011;18147;51.952;6.146;2023-07-30T08:55:37;25.63;;;6.60;;
31537;SDS011;18147;51.952;6.146;2023-07-30T08:58:04;21.98;;;6.90;;
31537;SDS011;18147;51.952;6.146;2023-07-30T09:00:31;21.08;;;6.60;;
31537;SDS011;18147;51.952;6.146;2023-07-30T09:03:03;25.00;;;7.07;;
31537;SDS011;18147;51.952;6.146;2023-07-30T09:05:30;19.02;;;7.22;;
31537;SDS011;18147;51.952;6.146;2023-07-30T09:07:56;24.50;;;7.57;;
31537;SDS011;18147;51.952;6.146;2023-07-30T09:10:23;25.98;;;6.53;;
31537;SDS011;18147;51.952;6.146;2023-07-30T09:12:56;21.35;;;6.57;;
31537;SDS011;18147;51.952;6.146;2023-07-30T09:15:31;20.33;;;6.57;;
31537;SDS011;18147;51.952;6.146;2023-07-30T09:18:00;17.27;;;5.70;;
31537;SDS011;18147;51.952;6.146;2023-07-30T09:20:26;26.05;;;6.80;;
31537;SDS011;18147;51.952;6.146;2023-07-30T09:22:52;18.60;;;5.93;;
31537;SDS011;18147;51.952;6.146;2023-07-30T09:25:18;24.85;;;6.85;;
31537;SDS011;18147;51.952;6.146;2023-07-30T09:27:52;24.20;;;7.30;;
31537;SDS011;18147;51.952;6.146;2023-07-30T09:30:24;16.20;;;5.03;;
31537;SDS011;18147;51.952;6.146;2023-07-30T09:32:54;26.40;;;7.32;;
31537;SDS011;18147;51.952;6.146;2023-07-30T09:35:20;21.00;;;6.03;;
31537;SDS011;18147;51.952;6.146;2023-07-30T09:37:48;18.08;;;6.38;;
31537;SDS011;18147;51.952;6.146;2023-07-30T09:40:14;21.85;;;6.40;;
31537;SDS011;18147;51.952;6.146;2023-07-30T09:42:46;20.45;;;5.65;;
31537;SDS011;18147;51.952;6.146;2023-07-30T09:45:21;24.70;;;6.07;;
31537;SDS011;18147;51.952;6.146;2023-07-30T09:47:52;21.85;;;5.78;;
31537;SDS011;18147;51.952;6.146;2023-07-30T09:50:18;27.70;;;6.28;;
31537;SDS011;18147;51.952;6.146;2023-07-30T09:52:45;19.15;;;5.32;;
31537;SDS011;18147;51.952;6.146;2023-07-30T09:55:15;17.88;;;5.80;;
31537;SDS011;18147;51.952;6.146;2023-07-30T09:57:42;19.75;;;5.65;;
31537;SDS011;18147;51.952;6.146;2023-07-30T10:00:08;26.17;;;5.95;;
31537;SDS011;18147;51.952;6.146;2023-07-30T10:02:39;15.30;;;5.32;;
31537;SDS011;18147;51.952;6.146;2023-07-30T10:05:18;24.60;;;5.32;;
31537;SDS011;18147;51.952;6.146;2023-07-30T10:07:48;20.20;;;5.07;;
31537;SDS011;18147;51.952;6.146;2023-07-30T10:10:18;14.10;;;5.05;;
31537;SDS011;18147;51.952;6.146;2023-07-30T10:12:46;14.70;;;4.72;;
31537;SDS011;18147;51.952;6.146;2023-07-30T10:15:20;13.43;;;4.85;;
31537;SDS011;18147;51.952;6.146;2023-07-30T10:17:52;17.17;;;5.00;;
31537;SDS011;18147;51.952;6.146;2023-07-30T10:20:21;19.33;;;4.80;;
31537;SDS011;18147;51.952;6.146;2023-07-30T10:22:52;18.75;;;4.90;;
31537;SDS011;18147;51.952;6.146;2023-07-30T10:25:20;15.82;;;4.38;;
31537;SDS011;18147;51.952;6.146;2023-07-30T10:27:47;17.73;;;4.75;;
31537;SDS011;18147;51.952;6.146;2023-07-30T10:30:15;13.82;;;4.15;;
31537;SDS011;18147;51.952;6.146;2023-07-30T10:33:04;20.17;;;4.28;;
31537;SDS011;18147;51.952;6.146;2023-07-30T10:38:11;17.48;;;4.13;;
31537;SDS011;18147;51.952;6.146;2023-07-30T10:41:06;18.42;;;5.05;;
31537;SDS011;18147;51.952;6.146;2023-07-30T10:43:35;9.43;;;3.35;;
31537;SDS011;18147;51.952;6.146;2023-07-30T10:48:33;14.68;;;4.28;;
31537;SDS011;18147;51.952;6.146;2023-07-30T10:51:01;13.02;;;4.50;;
31537;SDS011;18147;51.952;6.146;2023-07-30T10:53:28;12.98;;;3.78;;
31537;SDS011;18147;51.952;6.146;2023-07-30T10:55:53;13.88;;;3.60;;
31537;SDS011;18147;51.952;6.146;2023-07-30T10:58:20;15.27;;;3.60;;
31537;SDS011;18147;51.952;6.146;2023-07-30T11:00:48;10.05;;;3.22;;
31537;SDS011;18147;51.952;6.146;2023-07-30T11:03:14;15.20;;;3.53;;
31537;SDS011;18147;51.952;6.146;2023-07-30T11:05:46;11.60;;;3.13;;
31537;SDS011;18147;51.952;6.146;2023-07-30T11:08:12;10.57;;;3.08;;
31537;SDS011;18147;51.952;6.146;2023-07-30T11:10:46;9.25;;;2.78;;
31537;SDS011;18147;51.952;6.146;2023-07-30T11:13:16;13.65;;;3.00;;
31537;SDS011;18147;51.952;6.146;2023-07-30T11:15:43;13.35;;;3.00;;
31537;SDS011;18147;51.952;6.146;2023-07-30T11:18:09;11.93;;;3.08;;
31537;SDS011;18147;51.952;6.146;2023-07-30T11:20:43;8.13;;;2.50;;
31537;SDS011;18147;51.952;6.146;2023-07-30T11:25:50;10.07;;;2.55;;
31537;SDS011;18147;51.952;6.146;2023-07-30T11:28:32;8.75;;;2.60;;
31537;SDS011;18147;51.952;6.146;2023-07-30T11:31:00;6.78;;;2.20;;
31537;SDS011;18147;51.952;6.146;2023-07-30T11:33:28;5.80;;;2.22;;
31537;SDS011;18147;51.952;6.146;2023-07-30T11:36:02;9.07;;;2.80;;
31537;SDS011;18147;51.952;6.146;2023-07-30T11:38:28;7.82;;;2.45;;
31537;SDS011;18147;51.952;6.146;2023-07-30T11:40:55;7.60;;;2.50;;
31537;SDS011;18147;51.952;6.146;2023-07-30T11:43:22;9.00;;;2.58;;
31537;SDS011;18147;51.952;6.146;2023-07-30T11:45:49;10.38;;;2.95;;
31537;SDS011;18147;51.952;6.146;2023-07-30T11:48:15;8.65;;;2.45;;
31537;SDS011;18147;51.952;6.146;2023-07-30T11:50:44;10.73;;;2.97;;
31537;SDS011;18147;51.952;6.146;2023-07-30T11:53:13;10.10;;;2.70;;
31537;SDS011;18147;51.952;6.146;2023-07-30T11:55:46;13.73;;;2.88;;
31537;SDS011;18147;51.952;6.146;2023-07-30T11:58:14;14.18;;;3.03;;
31537;SDS011;18147;51.952;6.146;2023-07-30T12:00:43;10.15;;;3.40;;
31537;SDS011;18147;51.952;6.146;2023-07-30T12:03:10;10.20;;;2.95;;
31537;SDS011;18147;51.952;6.146;2023-07-30T12:05:45;11.57;;;2.85;;
31537;SDS011;18147;51.952;6.146;2023-07-30T12:08:24;11.23;;;3.08;;
31537;SDS011;18147;51.952;6.146;2023-07-30T12:10:52;10.55;;;2.88;;
31537;SDS011;18147;51.952;6.146;2023-07-30T12:13:18;15.23;;;3.80;;
31537;SDS011;18147;51.952;6.146;2023-07-30T12:15:51;20.33;;;3.13;;
31537;SDS011;18147;51.952;6.146;2023-07-30T12:18:18;10.63;;;3.10;;
31537;SDS011;18147;51.952;6.146;2023-07-30T12:20:44;10.00;;;2.88;;
31537;SDS011;18147;51.952;6.146;2023-07-30T12:23:16;10.02;;;2.65;;
31537;SDS011;18147;51.952;6.146;2023-07-30T12:25:47;5.35;;;2.10;;
31537;SDS011;18147;51.952;6.146;2023-07-30T12:28:13;9.18;;;2.78;;
31537;SDS011;18147;51.952;6.146;2023-07-30T12:30:45;6.40;;;2.35;;
31537;SDS011;18147;51.952;6.146;2023-07-30T12:33:13;9.23;;;2.58;;
31537;SDS011;18147;51.952;6.146;2023-07-30T12:35:46;10.80;;;2.78;;
31537;SDS011;18147;51.952;6.146;2023-07-30T12:38:13;11.10;;;2.90;;
31537;SDS011;18147;51.952;6.146;2023-07-30T12:40:45;7.80;;;2.22;;
31537;SDS011;18147;51.952;6.146;2023-07-30T12:43:18;8.60;;;2.15;;
31537;SDS011;18147;51.952;6.146;2023-07-30T12:45:45;8.68;;;1.90;;
31537;SDS011;18147;51.952;6.146;2023-07-30T12:48:20;10.13;;;2.58;;
31537;SDS011;18147;51.952;6.146;2023-07-30T12:50:46;6.85;;;2.00;;
31537;SDS011;18147;51.952;6.146;2023-07-30T12:53:15;4.93;;;2.10;;
31537;SDS011;18147;51.952;6.146;2023-07-30T12:55:43;6.45;;;2.15;;
31537;SDS011;18147;51.952;6.146;2023-07-30T12:58:09;9.85;;;2.78;;
31537;SDS011;18147;51.952;6.146;2023-07-30T13:00:51;6.93;;;2.00;;
31537;SDS011;18147;51.952;6.146;2023-07-30T13:03:17;9.45;;;2.10;;
31537;SDS011;18147;51.952;6.146;2023-07-30T13:05:46;13.70;;;1.92;;
31537;SDS011;18147;51.952;6.146;2023-07-30T13:08:17;8.43;;;1.85;;
31537;SDS011;18147;51.952;6.146;2023-07-30T13:10:43;6.07;;;2.08;;
31537;SDS011;18147;51.952;6.146;2023-07-30T13:13:09;6.35;;;1.52;;
31537;SDS011;18147;51.952;6.146;2023-07-30T13:15:34;6.78;;;1.92;;
31537;SDS011;18147;51.952;6.146;2023-07-30T13:18:00;10.27;;;1.80;;
31537;SDS011;18147;51.952;6.146;2023-07-30T13:20:27;4.53;;;1.38;;
31537;SDS011;18147;51.952;6.146;2023-07-30T13:22:52;6.85;;;1.70;;
31537;SDS011;18147;51.952;6.146;2023-07-30T13:25:19;10.18;;;2.22;;
31537;SDS011;18147;51.952;6.146;2023-07-30T13:27:45;5.93;;;1.45;;
31537;SDS011;18147;51.952;6.146;2023-07-30T13:30:11;7.53;;;1.73;;
31537;SDS011;18147;51.952;6.146;2023-07-30T13:35:11;6.60;;;1.42;;
31537;SDS011;18147;51.952;6.146;2023-07-30T13:37:51;4.38;;;1.38;;
31537;SDS011;18147;51.952;6.146;2023-07-30T13:40:17;6.88;;;1.77;;
31537;SDS011;18147;51.952;6.146;2023-07-30T13:42:45;3.47;;;1.42;;
31537;SDS011;18147;51.952;6.146;2023-07-30T13:45:14;4.88;;;1.60;;
31537;SDS011;18147;51.952;6.146;2023-07-30T13:47:43;7.97;;;1.75;;
31537;SDS011;18147;51.952;6.146;2023-07-30T13:50:09;9.38;;;1.25;;
31537;SDS011;18147;51.952;6.146;2023-07-30T13:52:44;4.20;;;1.20;;
31537;SDS011;18147;51.952;6.146;2023-07-30T13:55:09;9.70;;;1.70;;
31537;SDS011;18147;51.952;6.146;2023-07-30T13:57:56;6.03;;;1.70;;
31537;SDS011;18147;51.952;6.146;2023-07-30T14:00:22;7.10;;;1.15;;
31537;SDS011;18147;51.952;6.146;2023-07-30T14:02:48;4.43;;;1.08;;
31537;SDS011;18147;51.952;6.146;2023-07-30T14:05:14;7.88;;;1.25;;
31537;SDS011;18147;51.952;6.146;2023-07-30T14:07:42;2.35;;;1.10;;
31537;SDS011;18147;51.952;6.146;2023-07-30T14:10:13;2.67;;;1.02;;
31537;SDS011;18147;51.952;6.146;2023-07-30T14:12:41;2.78;;;1.00;;
31537;SDS011;18147;51.952;6.146;2023-07-30T14:15:09;3.17;;;1.42;;
31537;SDS011;18147;51.952;6.146;2023-07-30T14:17:38;5.38;;;1.30;;
31537;SDS011;18147;51.952;6.146;2023-07-30T14:20:11;4.53;;;1.10;;
31537;SDS011;18147;51.952;6.146;2023-07-30T14:22:43;5.53;;;1.58;;
31537;SDS011;18147;51.952;6.146;2023-07-30T14:25:09;6.28;;;1.73;;
31537;SDS011;18147;51.952;6.146;2023-07-30T14:28:01;3.63;;;1.17;;
31537;SDS011;18147;51.952;6.146;2023-07-30T14:30:26;5.93;;;1.73;;
31537;SDS011;18147;51.952;6.146;2023-07-30T14:32:52;7.60;;;1.55;;
31537;SDS011;18147;51.952;6.146;2023-07-30T14:35:23;2.47;;;0.90;;
31537;SDS011;18147;51.952;6.146;2023-07-30T14:37:49;4.28;;;1.45;;
31537;SDS011;18147;51.952;6.146;2023-07-30T14:40:15;8.73;;;1.40;;
31537;SDS011;18147;51.952;6.146;2023-07-30T14:42:41;6.38;;;1.40;;
31537;SDS011;18147;51.952;6.146;2023-07-30T14:45:09;4.93;;;1.45;;
31537;SDS011;18147;51.952;6.146;2023-07-30T14:47:44;5.75;;;1.58;;